Time;durP1;ratioP1;P1;durP2;ratioP2;P2;SDS_P1;SDS_P2;PMS_P1;PMS_P2;Temp;Humidity;BMP_temperature;BMP_pressure;BME280_temperature;BME280_humidity;BME280_pressure;Samples;Min_cycle;Max_cycle;Signal;HPM_P1;HPM_P2
2023/04/24 00:00:40;;;;;;;;;;;;;;;11.47;94.60;100088.53;7362442;19;19962;-62
2023/04/24 00:03:07;;;;;;;;;;;;;;;11.49;94.45;100094.44;7362013;19;19926;-62
2023/04/24 00:05:34;;;;;;;;;;;;;;;11.50;94.86;100087.34;7363857;19;19915;-63
2023/04/24 00:08:01;;;;;;;;;;;;;;;11.50;95.08;100093.44;7362843;19;19918;-62
2023/04/24 00:10:30;;;;;;;;;;;;;;;11.46;95.02;100102.69;7363078;19;20011;-62
2023/04/24 00:12:57;;;;;;;;;;;;;;;11.47;95.11;100104.34;7362334;19;19933;-61
2023/04/24 00:15:23;;;;;;;;;;;;;;;11.46;94.36;100109.78;7359382;19;19919;-61
2023/04/24 00:17:51;;;;;;;;;;;;;;;11.45;94.38;100108.97;7363528;19;19915;-62
2023/04/24 00:20:18;;;;;;;;;;;;;;;11.44;94.52;100112.59;7361501;19;20282;-63
2023/04/24 00:22:45;;;;;;;;;;;;;;;11.46;94.80;100115.88;7365749;19;19930;-63
2023/04/24 00:25:12;;;;;;;;;;;;;;;11.45;94.56;100116.03;7360994;19;20842;-60
2023/04/24 00:27:39;;;;;;;;;;;;;;;11.46;94.78;100122.97;7365663;19;19923;-61
2023/04/24 00:30:06;;;;;;;;;;;;;;;11.41;94.12;100126.13;7360896;19;20260;-62
2023/04/24 00:32:33;;;;;;;;;;;;;;;11.39;94.52;100124.63;7360809;19;19926;-63
2023/04/24 00:35:00;;;;;;;;;;;;;;;11.35;94.30;100126.81;7360565;19;20373;-62
2023/04/24 00:37:27;;;;;;;;;;;;;;;11.37;94.47;100127.47;7364525;19;19929;-61
2023/04/24 00:39:54;;;;;;;;;;;;;;;11.41;94.62;100133.19;7362438;19;20237;-61
2023/04/24 00:42:21;;;;;;;;;;;;;;;11.41;94.72;100138.47;7365410;19;20471;-65
2023/04/24 00:44:48;;;;;;;;;;;;;;;11.41;94.38;100138.47;7356409;19;20026;-63
2023/04/24 00:47:15;;;;;;;;;;;;;;;11.41;94.40;100136.66;7362824;19;19925;-61
2023/04/24 00:49:41;;;;;;;;;;;;;;;11.40;94.35;100137.66;7363486;19;19943;-63
2023/04/24 00:52:09;;;;;;;;;;;;;;;11.44;94.24;100146.81;7363415;19;19934;-60
2023/04/24 00:54:36;;;;;;;;;;;;;;;11.41;93.60;100151.63;7360530;19;20597;-63
2023/04/24 00:57:03;;;;;;;;;;;;;;;11.42;93.92;100140.94;7362416;19;20611;-62
2023/04/24 00:59:30;;;;;;;;;;;;;;;11.42;93.47;100145.38;7360478;19;19959;-60
2023/04/24 01:01:58;;;;;;;;;;;;;;;11.46;93.68;100146.66;7365913;19;19955;-64
2023/04/24 01:04:45;;;;;;;;;;;;;;;11.51;94.78;100149.59;7361454;19;19994;-66
2023/04/24 01:07:13;;;;;;;;;;;;;;;11.53;94.98;100142.31;7363555;19;19918;-63
2023/04/24 01:09:42;;;;;;;;;;;;;;;11.48;93.40;100134.13;7362036;19;19923;-61
2023/04/24 01:12:09;;;;;;;;;;;;;;;11.48;92.49;100148.09;7360997;19;19938;-62
2023/04/24 01:14:37;;;;;;;;;;;;;;;11.48;92.34;100152.56;7358465;19;19935;-62
2023/04/24 01:17:03;;;;;;;;;;;;;;;11.48;92.68;100156.00;7361224;19;19947;-59
2023/04/24 01:19:30;;;;;;;;;;;;;;;11.49;92.96;100172.66;7358919;19;19926;-62
2023/04/24 01:21:58;;;;;;;;;;;;;;;11.51;93.11;100168.03;7357444;19;20568;-61
2023/04/24 01:24:25;;;;;;;;;;;;;;;11.52;93.54;100173.13;7357299;19;19923;-62
2023/04/24 01:26:52;;;;;;;;;;;;;;;11.52;93.68;100172.31;7356876;19;20339;-62
2023/04/24 01:29:19;;;;;;;;;;;;;;;11.54;93.84;100170.31;7353493;19;19945;-58
2023/04/24 01:31:46;;;;;;;;;;;;;;;11.54;94.06;100168.50;7358365;19;21000;-61
2023/04/24 01:34:13;;;;;;;;;;;;;;;11.54;94.04;100157.97;7359991;19;20679;-62
2023/04/24 01:36:41;;;;;;;;;;;;;;;11.54;94.31;100157.97;7357706;19;19930;-62
2023/04/24 01:39:08;;;;;;;;;;;;;;;11.52;94.02;100152.06;7356661;19;19919;-62
2023/04/24 01:41:35;;;;;;;;;;;;;;;11.50;93.53;100143.50;7357513;19;21898;-63
2023/04/24 01:44:02;;;;;;;;;;;;;;;11.46;92.95;100157.19;7356602;19;20424;-61
2023/04/24 01:46:30;;;;;;;;;;;;;;;11.41;92.74;100154.28;7360179;19;20415;-61
2023/04/24 01:48:59;;;;;;;;;;;;;;;11.38;92.31;100157.22;7357113;19;19915;-60
2023/04/24 01:51:26;;;;;;;;;;;;;;;11.38;92.57;100159.88;7356703;19;21615;-61
2023/04/24 01:53:53;;;;;;;;;;;;;;;11.39;93.21;100161.50;7368357;19;19927;-64
2023/04/24 01:56:21;;;;;;;;;;;;;;;11.37;93.53;100159.06;7369586;19;19927;-61
2023/04/24 01:58:52;;;;;;;;;;;;;;;11.35;93.54;100166.31;7370426;19;19923;-61
2023/04/24 02:01:19;;;;;;;;;;;;;;;11.33;92.96;100172.75;7364497;19;20237;-61
2023/04/24 02:03:47;;;;;;;;;;;;;;;11.32;93.50;100171.94;7370844;19;19976;-63
2023/04/24 02:06:14;;;;;;;;;;;;;;;11.34;94.05;100177.84;7371228;19;19919;-62
2023/04/24 02:08:41;;;;;;;;;;;;;;;11.35;93.92;100176.03;7368863;19;19947;-62
2023/04/24 02:11:09;;;;;;;;;;;;;;;11.36;94.21;100175.88;7371402;19;19921;-62
2023/04/24 02:13:36;;;;;;;;;;;;;;;11.36;94.05;100173.22;7370420;19;20318;-62
2023/04/24 02:16:03;;;;;;;;;;;;;;;11.39;94.74;100172.06;7364003;19;19922;-63
2023/04/24 02:18:30;;;;;;;;;;;;;;;11.38;94.42;100178.31;7372418;19;19923;-62
2023/04/24 02:20:57;;;;;;;;;;;;;;;11.36;94.09;100193.47;7366058;19;19911;-63
2023/04/24 02:23:24;;;;;;;;;;;;;;;11.34;94.62;100188.38;7368357;19;19922;-63
2023/04/24 02:25:53;;;;;;;;;;;;;;;11.37;95.21;100195.13;7368755;19;19919;-62
2023/04/24 02:28:20;;;;;;;;;;;;;;;11.40;95.67;100194.78;7372082;19;19961;-62
2023/04/24 02:30:46;;;;;;;;;;;;;;;11.38;95.15;100197.56;7366927;19;20103;-62
2023/04/24 02:33:13;;;;;;;;;;;;;;;11.36;94.66;100196.94;7369903;19;19946;-62
2023/04/24 02:35:40;;;;;;;;;;;;;;;11.37;95.01;100203.03;7369718;19;19923;-62
2023/04/24 02:38:07;;;;;;;;;;;;;;;11.40;95.01;100200.88;7370881;19;19953;-61
2023/04/24 02:40:34;;;;;;;;;;;;;;;11.42;95.24;100200.69;7368922;19;19940;-62
2023/04/24 02:43:00;;;;;;;;;;;;;;;11.44;95.28;100209.22;7366819;19;19919;-61
2023/04/24 02:45:27;;;;;;;;;;;;;;;11.45;95.05;100209.06;7365761;19;19918;-62
2023/04/24 02:47:54;;;;;;;;;;;;;;;11.45;94.93;100210.88;7371263;19;19918;-61
2023/04/24 02:50:21;;;;;;;;;;;;;;;11.42;94.34;100206.78;7365879;19;19939;-62
2023/04/24 02:52:48;;;;;;;;;;;;;;;11.42;94.22;100212.06;7368394;19;19930;-63
2023/04/24 02:55:15;;;;;;;;;;;;;;;11.42;94.08;100221.78;7369118;19;19929;-63
2023/04/24 02:57:44;;;;;;;;;;;;;;;11.39;93.70;100230.00;7367699;19;19925;-63
2023/04/24 03:00:11;;;;;;;;;;;;;;;11.38;94.07;100221.28;7362068;19;19933;-63
2023/04/24 03:02:38;;;;;;;;;;;;;;;11.37;93.36;100237.28;7367978;19;20327;-63
2023/04/24 03:05:06;;;;;;;;;;;;;;;11.37;93.29;100240.72;7367325;19;21365;-63
2023/04/24 03:07:33;;;;;;;;;;;;;;;11.37;93.13;100232.00;7365424;19;19995;-62
2023/04/24 03:10:00;;;;;;;;;;;;;;;11.34;93.10;100238.41;7367115;19;19918;-62
2023/04/24 03:12:27;;;;;;;;;;;;;;;11.35;93.07;100242.69;7365535;19;19998;-62
2023/04/24 03:14:54;;;;;;;;;;;;;;;11.36;93.42;100246.16;7366683;19;19915;-62
2023/04/24 03:17:20;;;;;;;;;;;;;;;11.34;93.12;100245.50;7366400;19;20529;-62
2023/04/24 03:19:47;;;;;;;;;;;;;;;11.29;92.71;100246.00;7366777;19;19923;-62
2023/04/24 03:22:14;;;;;;;;;;;;;;;11.28;93.27;100256.72;7367250;19;20336;-63
2023/04/24 03:24:41;;;;;;;;;;;;;;;11.27;92.92;100260.38;7362752;19;20323;-61
2023/04/24 03:27:08;;;;;;;;;;;;;;;11.24;92.43;100253.63;7370527;19;19929;-62
2023/04/24 03:29:35;;;;;;;;;;;;;;;11.19;92.33;100252.47;7365784;19;19926;-62
2023/04/24 03:32:02;;;;;;;;;;;;;;;11.17;92.28;100262.38;7364738;19;20545;-64
2023/04/24 03:34:28;;;;;;;;;;;;;;;11.16;92.45;100264.19;7369487;19;20326;-61
2023/04/24 03:36:55;;;;;;;;;;;;;;;11.17;92.71;100262.38;7367317;19;19927;-61
2023/04/24 03:39:22;;;;;;;;;;;;;;;11.14;92.45;100268.78;7363387;19;19922;-62
2023/04/24 03:41:49;;;;;;;;;;;;;;;11.12;92.88;100270.78;7368366;19;20321;-61
2023/04/24 03:44:16;;;;;;;;;;;;;;;11.09;92.62;100276.38;7363820;19;20215;-61
2023/04/24 03:46:43;;;;;;;;;;;;;;;11.06;92.68;100282.00;7368238;19;19915;-64
2023/04/24 03:49:09;;;;;;;;;;;;;;;11.03;92.86;100288.41;7364288;19;19914;-64
2023/04/24 03:51:36;;;;;;;;;;;;;;;11.00;92.70;100293.19;7365380;19;19918;-64
2023/04/24 03:54:03;;;;;;;;;;;;;;;10.97;92.87;100296.97;7368247;19;20590;-62
2023/04/24 03:56:30;;;;;;;;;;;;;;;10.96;92.69;100299.78;7363191;19;19930;-63
2023/04/24 03:58:57;;;;;;;;;;;;;;;10.91;92.53;100300.31;7363293;19;19974;-61
2023/04/24 04:01:24;;;;;;;;;;;;;;;10.88;92.83;100299.78;7367249;19;19915;-62
2023/04/24 04:03:51;;;;;;;;;;;;;;;10.86;93.74;100304.44;7366089;19;20360;-62
2023/04/24 04:06:19;;;;;;;;;;;;;;;10.87;93.82;100298.19;7365215;19;19922;-62
2023/04/24 04:08:46;;;;;;;;;;;;;;;10.83;93.43;100300.31;7365246;19;19911;-62
2023/04/24 04:11:13;;;;;;;;;;;;;;;10.82;93.19;100297.84;7368175;19;19919;-63
2023/04/24 04:13:39;;;;;;;;;;;;;;;10.80;93.59;100299.81;7365378;19;19918;-62
2023/04/24 04:16:06;;;;;;;;;;;;;;;10.78;94.26;100304.41;7357036;19;19994;-62
2023/04/24 04:18:34;;;;;;;;;;;;;;;10.77;94.57;100308.06;7365966;19;19943;-63
2023/04/24 04:21:01;;;;;;;;;;;;;;;10.78;94.95;100314.94;7364586;19;20191;-61
2023/04/24 04:23:27;;;;;;;;;;;;;;;10.79;95.67;100317.41;7369527;19;19949;-63
2023/04/24 04:25:54;;;;;;;;;;;;;;;10.81;95.58;100325.97;7362447;19;19918;-61
2023/04/24 04:28:21;;;;;;;;;;;;;;;10.79;94.84;100327.94;7364624;19;19974;-62
2023/04/24 04:30:48;;;;;;;;;;;;;;;10.77;94.65;100329.13;7364392;19;20286;-63
2023/04/24 04:33:16;;;;;;;;;;;;;;;10.75;94.70;100328.44;7365533;19;20357;-63
2023/04/24 04:35:42;;;;;;;;;;;;;;;10.73;94.56;100334.69;7364306;19;19922;-62
2023/04/24 04:38:10;;;;;;;;;;;;;;;10.73;94.97;100339.13;7365060;19;20256;-62
2023/04/24 04:40:37;;;;;;;;;;;;;;;10.74;94.75;100348.66;7361740;19;19915;-62
2023/04/24 04:43:06;;;;;;;;;;;;;;;10.73;94.36;100352.28;7366157;19;19923;-62
2023/04/24 04:45:34;;;;;;;;;;;;;;;10.68;94.26;100339.63;7361958;19;19917;-62
2023/04/24 04:48:02;;;;;;;;;;;;;;;10.67;94.56;100351.13;7365255;19;19919;-63
2023/04/24 04:50:28;;;;;;;;;;;;;;;10.65;94.70;100353.13;7365514;19;19922;-61
2023/04/24 04:52:55;;;;;;;;;;;;;;;10.65;94.65;100354.94;7366249;19;20460;-61
2023/04/24 04:55:22;;;;;;;;;;;;;;;10.60;94.13;100358.06;7364068;19;19926;-63
2023/04/24 04:57:49;;;;;;;;;;;;;;;10.63;94.74;100356.91;7362348;19;20370;-62
2023/04/24 05:00:16;;;;;;;;;;;;;;;10.67;95.00;100369.56;7360399;19;19943;-62
2023/04/24 05:02:43;;;;;;;;;;;;;;;10.69;94.93;100370.22;7367202;19;20448;-63
2023/04/24 05:05:10;;;;;;;;;;;;;;;10.73;95.38;100376.78;7364727;19;19974;-63
2023/04/24 05:07:37;;;;;;;;;;;;;;;10.76;95.11;100375.66;7364025;19;19923;-62
2023/04/24 05:10:04;;;;;;;;;;;;;;;10.77;94.80;100379.13;7362372;19;19986;-63
2023/04/24 05:12:31;;;;;;;;;;;;;;;10.81;95.34;100388.31;7362577;19;19919;-63
2023/04/24 05:14:58;;;;;;;;;;;;;;;10.82;95.41;100389.97;7357470;19;20319;-65
2023/04/24 05:17:25;;;;;;;;;;;;;;;10.82;95.16;100397.84;7364838;19;19949;-63
2023/04/24 05:19:52;;;;;;;;;;;;;;;10.81;94.66;100402.31;7362229;19;19918;-62
2023/04/24 05:22:20;;;;;;;;;;;;;;;10.84;95.19;100396.69;7363334;19;20253;-63
2023/04/24 05:24:47;;;;;;;;;;;;;;;10.85;95.04;100397.53;7363724;19;20275;-62
2023/04/24 05:27:15;;;;;;;;;;;;;;;10.86;95.05;100401.81;7363112;19;21010;-62
2023/04/24 05:29:41;;;;;;;;;;;;;;;10.86;94.67;100402.63;7360384;19;20251;-62
2023/04/24 05:32:09;;;;;;;;;;;;;;;10.87;94.57;100406.09;7361417;19;20264;-62
2023/04/24 05:34:36;;;;;;;;;;;;;;;10.87;94.13;100412.13;7365970;19;20164;-63
2023/04/24 05:37:07;;;;;;;;;;;;;;;10.85;94.19;100406.25;7364670;19;20578;-63
2023/04/24 05:39:35;;;;;;;;;;;;;;;10.82;93.18;100411.81;7364902;19;19918;-61
2023/04/24 05:42:03;;;;;;;;;;;;;;;10.83;92.34;100410.00;7361142;19;20013;-63
2023/04/24 05:44:30;;;;;;;;;;;;;;;10.77;90.33;100414.13;7363000;19;20527;-63
2023/04/24 05:46:57;;;;;;;;;;;;;;;10.71;88.08;100413.00;7363620;19;19990;-62
2023/04/24 05:49:24;;;;;;;;;;;;;;;10.71;86.02;100431.41;7364169;19;19922;-61
2023/04/24 05:51:50;;;;;;;;;;;;;;;10.71;85.78;100431.41;7366784;19;19923;-61
2023/04/24 05:54:17;;;;;;;;;;;;;;;10.67;86.29;100427.44;7363867;19;19938;-62
2023/04/24 05:56:44;;;;;;;;;;;;;;;10.69;86.55;100427.28;7363778;19;19926;-63
2023/04/24 05:59:11;;;;;;;;;;;;;;;10.71;86.63;100428.78;7357301;19;19961;-63
2023/04/24 06:01:38;;;;;;;;;;;;;;;10.75;86.74;100437.16;7359494;19;20329;-62
2023/04/24 06:04:05;;;;;;;;;;;;;;;10.76;85.61;100436.19;7355649;19;19978;-64
2023/04/24 06:06:33;;;;;;;;;;;;;;;10.77;85.33;100434.38;7363531;19;19922;-64
2023/04/24 06:08:59;;;;;;;;;;;;;;;10.77;85.58;100440.44;7359933;19;20630;-62
2023/04/24 06:11:27;;;;;;;;;;;;;;;10.78;85.17;100430.72;7360019;19;20488;-64
2023/04/24 06:13:54;;;;;;;;;;;;;;;10.83;84.84;100433.69;7356248;19;20276;-63
2023/04/24 06:16:21;;;;;;;;;;;;;;;10.81;81.70;100444.41;7356982;19;19926;-63
2023/04/24 06:18:48;;;;;;;;;;;;;;;10.83;81.38;100441.59;7356685;19;19918;-63
2023/04/24 06:21:16;;;;;;;;;;;;;;;10.89;81.07;100440.94;7357986;19;20190;-63
2023/04/24 06:23:43;;;;;;;;;;;;;;;10.94;82.14;100446.53;7357031;19;20333;-61
2023/04/24 06:26:10;;;;;;;;;;;;;;;11.03;82.07;100456.88;7357757;19;19923;-63
2023/04/24 06:28:37;;;;;;;;;;;;;;;11.08;81.08;100457.22;7356699;19;21472;-63
2023/04/24 06:31:04;;;;;;;;;;;;;;;11.13;79.54;100457.53;7350606;19;19919;-64
2023/04/24 06:33:31;;;;;;;;;;;;;;;11.12;79.62;100457.72;7357039;19;20307;-61
2023/04/24 06:35:58;;;;;;;;;;;;;;;11.13;79.47;100462.00;7356613;19;19943;-62
2023/04/24 06:38:25;;;;;;;;;;;;;;;11.18;81.83;100453.59;7358183;19;19922;-63
2023/04/24 06:40:52;;;;;;;;;;;;;;;11.23;81.94;100457.38;7364086;19;20510;-64
2023/04/24 06:43:19;;;;;;;;;;;;;;;11.38;79.10;100458.34;7364760;19;19930;-62
2023/04/24 06:45:46;;;;;;;;;;;;;;;11.64;78.45;100458.13;7364482;19;20035;-64
2023/04/24 06:48:13;;;;;;;;;;;;;;;12.03;76.37;100466.13;7363901;19;19937;-63
2023/04/24 06:50:40;;;;;;;;;;;;;;;12.49;72.71;100466.22;7360355;19;19939;-64
2023/04/24 06:53:08;;;;;;;;;;;;;;;12.54;71.14;100472.63;7361232;19;19925;-61
2023/04/24 06:55:35;;;;;;;;;;;;;;;12.53;70.54;100470.97;7361951;19;19922;-63
2023/04/24 06:58:02;;;;;;;;;;;;;;;12.58;71.85;100475.72;7361405;19;19940;-61
2023/04/24 07:00:29;;;;;;;;;;;;;;;12.69;71.87;100472.69;7360130;19;20316;-63
2023/04/24 07:02:57;;;;;;;;;;;;;;;12.96;71.12;100479.25;7364640;19;19937;-62
2023/04/24 07:05:24;;;;;;;;;;;;;;;13.26;69.37;100478.34;7362968;19;19923;-63
2023/04/24 07:07:51;;;;;;;;;;;;;;;13.55;68.48;100482.91;7364083;19;20023;-62
2023/04/24 07:10:19;;;;;;;;;;;;;;;13.67;66.18;100476.97;7360407;19;19938;-63
2023/04/24 07:12:47;;;;;;;;;;;;;;;13.62;66.94;100478.50;7364108;19;21260;-63
2023/04/24 07:15:14;;;;;;;;;;;;;;;13.66;65.87;100483.25;7352235;19;19994;-63
2023/04/24 07:17:44;;;;;;;;;;;;;;;13.58;63.52;100475.41;7358528;19;20002;-62
2023/04/24 07:20:11;;;;;;;;;;;;;;;13.59;63.66;100487.63;7363712;19;20518;-63
2023/04/24 07:22:38;;;;;;;;;;;;;;;13.70;62.09;100481.91;7364490;19;19922;-61
2023/04/24 07:25:06;;;;;;;;;;;;;;;13.78;59.96;100478.34;7362211;19;19998;-66
2023/04/24 07:27:34;;;;;;;;;;;;;;;13.74;59.76;100478.88;7361057;19;20325;-62
2023/04/24 07:30:01;;;;;;;;;;;;;;;13.51;59.69;100473.69;7359924;19;19929;-64
2023/04/24 07:32:28;;;;;;;;;;;;;;;13.29;60.84;100470.09;7363413;19;20345;-63
2023/04/24 07:34:56;;;;;;;;;;;;;;;13.12;61.11;100477.31;7321203;19;19921;-64
2023/04/24 07:37:23;;;;;;;;;;;;;;;12.95;61.53;100477.63;7350200;19;20557;-65
2023/04/24 07:39:50;;;;;;;;;;;;;;;12.94;62.33;100483.91;7357208;19;20270;-63
2023/04/24 07:42:17;;;;;;;;;;;;;;;13.39;61.78;100489.16;7357594;19;19986;-62
2023/04/24 07:44:45;;;;;;;;;;;;;;;14.18;58.96;100492.09;7352033;19;19975;-63
2023/04/24 07:47:14;;;;;;;;;;;;;;;14.75;58.28;100492.19;7358698;19;20477;-62
2023/04/24 07:49:41;;;;;;;;;;;;;;;15.01;58.02;100500.38;7353648;19;19919;-61
2023/04/24 07:52:09;;;;;;;;;;;;;;;15.18;56.88;100496.47;7355862;19;19923;-62
2023/04/24 07:54:37;;;;;;;;;;;;;;;15.57;56.06;100503.94;7353912;19;19942;-61
2023/04/24 07:57:06;;;;;;;;;;;;;;;15.95;52.60;100507.03;7353861;19;20411;-63
2023/04/24 07:59:33;;;;;;;;;;;;;;;16.37;50.83;100508.66;7349376;19;19919;-63
2023/04/24 08:02:03;;;;;;;;;;;;;;;16.34;50.57;100511.75;7358881;19;20239;-63
2023/04/24 08:04:30;;;;;;;;;;;;;;;16.11;50.47;100516.50;7363234;19;19927;-63
2023/04/24 08:06:58;;;;;;;;;;;;;;;16.10;55.87;100509.59;7361300;19;20293;-61
2023/04/24 08:09:25;;;;;;;;;;;;;;;15.72;50.69;100514.44;7361120;19;19923;-64
2023/04/24 08:11:53;;;;;;;;;;;;;;;15.62;51.79;100514.78;7363803;19;21590;-63
2023/04/24 08:14:20;;;;;;;;;;;;;;;15.56;51.34;100514.75;7359486;19;20276;-63
2023/04/24 08:16:47;;;;;;;;;;;;;;;15.45;53.00;100510.75;7361070;19;19914;-63
2023/04/24 08:19:14;;;;;;;;;;;;;;;15.25;51.15;100507.13;7361190;19;20279;-61
2023/04/24 08:21:41;;;;;;;;;;;;;;;15.01;52.55;100510.16;7362112;19;19933;-62
2023/04/24 08:24:08;;;;;;;;;;;;;;;14.72;55.24;100514.56;7362801;19;20538;-63
2023/04/24 08:26:35;;;;;;;;;;;;;;;14.50;55.56;100516.34;7365501;19;20564;-62
2023/04/24 08:29:02;;;;;;;;;;;;;;;14.27;56.80;100512.19;7358906;19;20412;-60
2023/04/24 08:31:29;;;;;;;;;;;;;;;14.13;58.08;100517.28;7361555;19;19927;-62
2023/04/24 08:33:57;;;;;;;;;;;;;;;14.05;58.42;100521.84;7360825;19;20216;-62
2023/04/24 08:36:24;;;;;;;;;;;;;;;13.98;58.80;100526.22;7363215;19;20277;-64
2023/04/24 08:39:09;;;;;;;;;;;;;;;13.86;58.37;100525.88;7364017;19;21803;-59
2023/04/24 08:41:37;;;;;;;;;;;;;;;13.76;59.42;100522.66;7360977;19;19918;-63
2023/04/24 08:44:05;;;;;;;;;;;;;;;13.75;61.13;100520.19;7359391;19;20232;-62
2023/04/24 08:46:35;;;;;;;;;;;;;;;13.67;60.38;100526.38;7361870;19;19919;-61
2023/04/24 08:49:03;;;;;;;;;;;;;;;13.70;61.40;100526.03;7361401;19;19919;-63
2023/04/24 08:51:31;;;;;;;;;;;;;;;13.76;62.04;100530.59;7360190;19;19927;-61
2023/04/24 08:53:58;;;;;;;;;;;;;;;13.79;60.82;100530.22;7358167;19;19922;-61
2023/04/24 08:56:25;;;;;;;;;;;;;;;13.82;60.67;100534.31;7359488;19;19918;-61
2023/04/24 08:58:53;;;;;;;;;;;;;;;13.86;60.71;100533.81;7360505;19;19927;-62
2023/04/24 09:01:23;;;;;;;;;;;;;;;13.91;60.43;100530.63;7358111;19;19918;-60
2023/04/24 09:03:50;;;;;;;;;;;;;;;13.99;61.22;100528.69;7364819;19;20333;-61
2023/04/24 09:06:21;;;;;;;;;;;;;;;14.07;62.39;100530.41;7362170;19;20338;-63
2023/04/24 09:08:50;;;;;;;;;;;;;;;14.13;62.40;100524.41;7361422;19;19915;-62
2023/04/24 09:11:18;;;;;;;;;;;;;;;14.18;61.12;100524.66;7358110;19;20176;-63
2023/04/24 09:13:45;;;;;;;;;;;;;;;14.25;62.10;100532.69;7360780;19;19958;-61
2023/04/24 09:16:14;;;;;;;;;;;;;;;14.26;59.81;100537.00;7355220;19;20343;-63
2023/04/24 09:18:41;;;;;;;;;;;;;;;14.27;59.80;100534.19;7361648;19;20191;-63
2023/04/24 09:21:09;;;;;;;;;;;;;;;14.28;59.02;100537.63;7360973;19;20347;-63
2023/04/24 09:23:36;;;;;;;;;;;;;;;14.34;59.84;100544.81;7358198;19;20317;-63
2023/04/24 09:26:06;;;;;;;;;;;;;;;14.38;59.27;100546.94;7358140;19;20002;-63
2023/04/24 09:28:36;;;;;;;;;;;;;;;14.35;58.78;100546.47;7359010;19;20029;-62
2023/04/24 09:31:05;;;;;;;;;;;;;;;14.28;58.84;100543.72;7355534;19;19949;-62
2023/04/24 09:33:32;;;;;;;;;;;;;;;14.19;58.85;100541.38;7360275;19;19919;-63
2023/04/24 09:36:00;;;;;;;;;;;;;;;14.17;59.26;100548.69;7357357;19;19927;-62
2023/04/24 09:38:30;;;;;;;;;;;;;;;14.13;59.68;100553.50;7361712;19;20677;-61
2023/04/24 09:41:02;;;;;;;;;;;;;;;14.04;59.50;100565.19;7360211;19;19914;-65
2023/04/24 09:43:30;;;;;;;;;;;;;;;13.85;59.31;100561.25;7358636;19;19929;-61
2023/04/24 09:45:58;;;;;;;;;;;;;;;13.70;60.77;100565.69;7353279;19;20325;-61
2023/04/24 09:48:33;;;;;;;;;;;;;;;13.55;60.23;100576.25;7355826;19;20377;-61
2023/04/24 09:51:03;;;;;;;;;;;;;;;13.49;62.02;100578.75;7318838;19;19923;-61
2023/04/24 09:53:30;;;;;;;;;;;;;;;13.45;63.25;100566.91;7351324;19;20491;-62
2023/04/24 09:56:02;;;;;;;;;;;;;;;13.34;63.60;100577.91;7349553;19;20317;-61
2023/04/24 09:58:29;;;;;;;;;;;;;;;13.30;63.78;100588.00;7347015;19;19922;-61
2023/04/24 10:00:56;;;;;;;;;;;;;;;13.27;62.42;100591.81;7350454;19;19923;-61
2023/04/24 10:03:24;;;;;;;;;;;;;;;13.25;62.48;100590.34;7355839;19;19921;-63
2023/04/24 10:05:51;;;;;;;;;;;;;;;13.21;62.82;100596.97;7352341;19;19947;-63
2023/04/24 10:08:19;;;;;;;;;;;;;;;13.15;62.30;100598.50;7353736;19;19922;-61
2023/04/24 10:10:46;;;;;;;;;;;;;;;13.09;62.64;100596.53;7352934;19;19956;-63
2023/04/24 10:13:14;;;;;;;;;;;;;;;13.07;63.46;100595.88;7352446;19;19978;-62
2023/04/24 10:15:42;;;;;;;;;;;;;;;13.03;63.28;100593.75;7352837;19;19922;-61
2023/04/24 10:18:10;;;;;;;;;;;;;;;13.02;63.19;100592.09;7359955;19;20232;-63
2023/04/24 10:20:38;;;;;;;;;;;;;;;13.09;63.41;100593.06;7359494;19;19935;-61
2023/04/24 10:23:06;;;;;;;;;;;;;;;13.13;62.20;100595.22;7360149;19;19919;-64
2023/04/24 10:25:34;;;;;;;;;;;;;;;13.14;62.16;100599.50;7357250;19;20251;-62
2023/04/24 10:28:02;;;;;;;;;;;;;;;13.12;62.13;100604.13;7360409;19;19922;-62
2023/04/24 10:30:34;;;;;;;;;;;;;;;13.08;62.24;100608.09;7359864;19;19933;-67
2023/04/24 10:33:03;;;;;;;;;;;;;;;13.08;63.71;100609.91;7360315;19;19919;-65
2023/04/24 10:35:31;;;;;;;;;;;;;;;13.03;62.97;100601.69;7367542;19;19923;-66
2023/04/24 10:38:01;;;;;;;;;;;;;;;12.98;63.49;100604.03;7356622;19;20558;-65
2023/04/24 10:40:33;;;;;;;;;;;;;;;12.91;64.54;100606.53;7364558;19;19919;-65
2023/04/24 10:43:06;;;;;;;;;;;;;;;12.85;64.22;100615.13;7363345;19;20349;-67
2023/04/24 10:45:33;;;;;;;;;;;;;;;12.81;65.45;100605.91;7353610;19;20443;-66
2023/04/24 10:48:10;;;;;;;;;;;;;;;12.77;64.56;100609.91;7359633;19;19914;-65
2023/04/24 10:50:45;;;;;;;;;;;;;;;12.76;64.91;100605.63;7361750;19;20297;-66
2023/04/24 10:53:15;;;;;;;;;;;;;;;12.74;64.22;100607.63;7356584;19;19915;-66
2023/04/24 10:55:51;;;;;;;;;;;;;;;12.74;65.58;100607.63;7355613;19;19911;-65
2023/04/24 10:58:35;;;;;;;;;;;;;;;12.75;64.50;100610.06;7355671;19;19923;-65
2023/04/24 11:01:02;;;;;;;;;;;;;;;12.74;64.63;100616.38;7358920;19;19915;-66
2023/04/24 11:03:32;;;;;;;;;;;;;;;12.79;64.79;100606.13;7358725;19;19923;-65
2023/04/24 11:06:01;;;;;;;;;;;;;;;12.82;63.88;100616.31;7357304;19;19914;-66
2023/04/24 11:08:30;;;;;;;;;;;;;;;12.89;64.82;100615.63;7360416;19;21652;-65
2023/04/24 11:10:58;;;;;;;;;;;;;;;12.99;63.21;100616.25;7361675;19;20336;-66
2023/04/24 11:13:26;;;;;;;;;;;;;;;13.07;62.03;100619.66;7361902;19;19922;-65
2023/04/24 11:16:02;;;;;;;;;;;;;;;13.21;62.99;100618.94;7352521;19;20521;-65
2023/04/24 11:18:36;;;;;;;;;;;;;;;13.35;63.61;100627.13;7358889;19;20290;-66
2023/04/24 11:21:10;;;;;;;;;;;;;;;13.47;62.18;100618.59;7358994;19;19927;-66
2023/04/24 11:23:37;;;;;;;;;;;;;;;13.66;61.31;100622.59;7362265;19;20346;-66
2023/04/24 11:26:12;;;;;;;;;;;;;;;13.75;60.70;100624.16;7355707;19;19978;-67
2023/04/24 11:28:49;;;;;;;;;;;;;;;13.88;61.66;100634.13;7355013;19;19928;-65
2023/04/24 11:31:25;;;;;;;;;;;;;;;14.01;60.39;100645.75;7351694;19;19930;-66
2023/04/24 11:33:52;;;;;;;;;;;;;;;14.11;60.71;100643.66;7359839;19;19923;-66
2023/04/24 11:36:23;;;;;;;;;;;;;;;14.20;59.98;100638.28;7356577;19;20286;-67
2023/04/24 11:38:50;;;;;;;;;;;;;;;14.28;60.16;100633.72;7343434;19;19948;-66
2023/04/24 11:41:18;;;;;;;;;;;;;;;14.31;58.93;100637.84;7355490;19;19943;-66
2023/04/24 11:43:46;;;;;;;;;;;;;;;14.22;59.53;100631.78;7358890;19;20395;-66
2023/04/24 11:46:16;;;;;;;;;;;;;;;14.25;60.98;100633.28;7351472;19;19962;-67
2023/04/24 11:48:45;;;;;;;;;;;;;;;14.28;59.74;100631.06;7352870;19;19923;-66
2023/04/24 11:51:13;;;;;;;;;;;;;;;14.31;59.58;100633.38;7356322;19;19956;-67
2023/04/24 11:53:40;;;;;;;;;;;;;;;14.32;60.08;100634.19;7354261;19;19940;-66
2023/04/24 11:56:09;;;;;;;;;;;;;;;14.29;59.94;100635.38;7356603;19;19927;-69
2023/04/24 11:58:36;;;;;;;;;;;;;;;14.29;61.43;100632.72;7348173;19;20258;-65
2023/04/24 12:01:04;;;;;;;;;;;;;;;14.29;60.93;100627.44;7353094;19;19914;-67
2023/04/24 12:03:31;;;;;;;;;;;;;;;14.32;60.96;100629.72;7357572;19;19982;-66
2023/04/24 12:06:07;;;;;;;;;;;;;;;14.35;58.40;100637.28;7354001;19;19926;-65
2023/04/24 12:08:35;;;;;;;;;;;;;;;14.26;59.29;100625.16;7354864;19;20020;-65
2023/04/24 12:11:06;;;;;;;;;;;;;;;14.16;59.09;100619.31;7356077;19;19918;-66
2023/04/24 12:13:34;;;;;;;;;;;;;;;14.16;59.56;100618.47;7354602;19;19927;-65
2023/04/24 12:16:04;;;;;;;;;;;;;;;14.13;60.22;100623.13;7348747;19;19916;-65
2023/04/24 12:18:31;;;;;;;;;;;;;;;14.21;60.83;100624.88;7356066;19;20494;-65
2023/04/24 12:21:07;;;;;;;;;;;;;;;14.22;58.88;100615.13;7358042;19;20081;-70
2023/04/24 12:23:35;;;;;;;;;;;;;;;14.22;58.48;100618.56;7362190;19;19914;-66
2023/04/24 12:26:04;;;;;;;;;;;;;;;14.25;58.78;100626.16;7360830;19;19914;-65
2023/04/24 12:28:36;;;;;;;;;;;;;;;14.27;58.01;100625.97;7362633;19;19923;-64
2023/04/24 12:31:03;;;;;;;;;;;;;;;14.30;58.42;100607.06;7357291;19;20002;-64
2023/04/24 12:33:34;;;;;;;;;;;;;;;14.27;57.65;100610.09;7361176;19;19919;-65
2023/04/24 12:36:01;;;;;;;;;;;;;;;14.27;57.80;100610.94;7319696;19;20022;-66
2023/04/24 12:38:30;;;;;;;;;;;;;;;14.25;57.90;100599.69;7350092;19;19971;-66